Las Palomas, New Mexico
Current Conditions -  °F | °C
As of 9:53 AM on Sunday 23 Nov 2014 (Local Time) from KTCS Reporting Station
Clear Clear  
Wind Chill: 56°   Ceiling: Unl
Heat Index: 56°   Visibility: 10mi
Dew Point: 23°   Wind: 22mph
Humidity: 28%   Direction: 290°WNW
Pressure: 29.9"   Gusts: 33mph
Location:  33.1162°N, 107.291°W
Report Text: KTCS 231653Z AUTO 29019G29KT 10SM CLR 13/M05 A2990 RMK AO2 PK WND 29030/1627 SLP079 T01331050 TSNO
Loading
Personal Weather Stations






























Interactive Weather Map New forecast layout! Learn more

10-Day Weather Forecast

Advertisements
Track Severe Weather on mobile